KRBG/RBG METAR and TAF weather

Enter ICAO airport designator
Station Type Date Time Source
KRBG METAR 2021/05/13 04:53 UTC NOAA

KRBG 130453Z AUTO 35005KT 10SM CLR 21/04 A3007 RMK AO2 SLP182 T02060039


Station Type Date Time Source
KRBG Decoded METAR 2021/05/13 04:53 UTC NOAA

ROSEBURG REGIONAL AIRPORT, OR, United States (KRBG) 43-14N 123-21W 154M
May 13, 2021 - 12:53 AM EDT / 2021.05.13 0453 UTC
Wind: from the N (350 degrees) at 6 MPH (5 KT):0
Visibility: 10 mile(s):0
Sky conditions: clear
Temperature: 69.1 F (20.6 C)
Dew Point: 39.0 F (3.9 C)
Relative Humidity: 33%
Pressure (altimeter): 30.07 in. Hg (1018 hPa)
ob: KRBG 130453Z AUTO 35005KT 10SM CLR 21/04 A3007 RMK AO2 SLP182 T02060039
cycle: 5

Station Type Date Time Source
KRBG TAF 2021/05/12 18:22 UTC NOAA

TAF KRBG 121721Z 1218/1318 36004KT P6SM SKC
FM122100 36009G15KT P6SM SKC
FM130300 34003KT P6SM SKC

Example: see airport list